createdAt,value
2018-04-23T00:00:27.855Z,47.10
2018-04-23T00:01:01.149Z,47.10
2018-04-23T00:01:34.624Z,47.00
2018-04-23T00:02:08.008Z,47.10
2018-04-23T00:02:41.386Z,47.10
2018-04-23T00:03:14.768Z,47.10
2018-04-23T00:03:48.151Z,47.10
2018-04-23T00:04:21.531Z,47.10
2018-04-23T00:04:54.926Z,47.10
2018-04-23T00:05:28.299Z,47.10
2018-04-23T00:06:01.603Z,47.10
2018-04-23T00:06:34.978Z,47.00
2018-04-23T00:07:08.450Z,47.10
2018-04-23T00:07:41.827Z,48.30
2018-04-23T00:08:15.215Z,47.20
2018-04-23T00:08:48.514Z,47.10
2018-04-23T00:09:21.973Z,47.10
2018-04-23T00:09:56.176Z,47.20
2018-04-23T00:10:31.401Z,47.20
2018-04-23T00:11:05.604Z,47.20
2018-04-23T00:11:39.198Z,47.20
2018-04-23T00:12:12.573Z,47.10
2018-04-23T00:12:45.956Z,47.10
2018-04-23T00:13:19.338Z,47.20
2018-04-23T00:13:52.729Z,47.10
2018-04-23T00:14:26.295Z,47.20
2018-04-23T00:15:00.510Z,47.20
2018-04-23T00:15:34.665Z,47.20
2018-04-23T00:16:08.093Z,47.10
2018-04-23T00:16:42.208Z,47.20
2018-04-23T00:17:15.679Z,47.20
2018-04-23T00:17:49.060Z,47.20
2018-04-23T00:18:22.287Z,48.40
2018-04-23T00:18:55.826Z,47.10
2018-04-23T00:19:30.027Z,47.20
2018-04-23T00:20:04.232Z,47.30
2018-04-23T00:20:37.612Z,47.20
2018-04-23T00:21:11.816Z,47.20
2018-04-23T00:21:45.115Z,47.20
2018-04-23T00:22:18.370Z,47.10
2018-04-23T00:22:52.575Z,47.10
2018-04-23T00:23:25.875Z,47.10
2018-04-23T00:24:00.157Z,47.10
2018-04-23T00:24:33.540Z,47.20
2018-04-23T00:25:06.923Z,47.20
2018-04-23T00:25:41.051Z,47.20
2018-04-23T00:26:14.431Z,47.20
2018-04-23T00:26:47.997Z,47.20
2018-04-23T00:27:21.478Z,47.20
2018-04-23T00:27:54.859Z,47.20
2018-04-23T00:28:28.154Z,47.20
2018-04-23T00:29:02.645Z,47.20
2018-04-23T00:29:36.032Z,47.20
2018-04-23T00:30:09.412Z,47.20
2018-04-23T00:30:42.797Z,47.20
2018-04-23T00:31:16.182Z,47.10
2018-04-23T00:31:49.562Z,47.20
2018-04-23T00:32:23.751Z,47.30
2018-04-23T00:32:57.965Z,47.30
2018-04-23T00:33:31.348Z,47.20
2018-04-23T00:34:04.729Z,47.20
2018-04-23T00:34:38.111Z,47.20
2018-04-23T00:35:12.091Z,47.20
2018-04-23T00:35:46.318Z,47.20
2018-04-23T00:36:19.692Z,47.20
2018-04-23T00:36:55.004Z,47.20
2018-04-23T00:37:28.711Z,47.10
2018-04-23T00:38:02.002Z,47.20
2018-04-23T00:38:35.473Z,47.20
2018-04-23T00:39:09.682Z,47.20
2018-04-23T00:39:43.059Z,47.20
2018-04-23T00:40:16.442Z,47.20
2018-04-23T00:40:49.822Z,47.20
2018-04-23T00:41:24.435Z,47.20
2018-04-23T00:41:57.820Z,47.20
2018-04-23T00:42:31.201Z,47.20
2018-04-23T00:43:04.586Z,47.20
2018-04-23T00:43:37.965Z,47.20
2018-04-23T00:44:11.348Z,47.20
2018-04-23T00:44:45.548Z,47.30
2018-04-23T00:45:18.949Z,47.20
2018-04-23T00:45:52.317Z,47.20
2018-04-23T00:46:25.696Z,47.20
2018-04-23T00:46:59.078Z,47.20
2018-04-23T00:47:32.461Z,48.50
2018-04-23T00:48:06.663Z,47.30
2018-04-23T00:48:40.046Z,47.30
2018-04-23T00:49:13.429Z,47.20
2018-04-23T00:49:47.630Z,47.30
2018-04-23T00:50:20.920Z,47.20
2018-04-23T00:50:54.394Z,47.20
2018-04-23T00:51:27.778Z,47.20
2018-04-23T00:52:01.159Z,47.20
2018-04-23T00:52:34.542Z,47.20
2018-04-23T00:53:19.804Z,47.20
2018-04-23T00:53:53.185Z,47.30
2018-04-23T00:54:26.686Z,47.30
2018-04-23T00:55:00.155Z,47.20
2018-04-23T00:55:33.540Z,47.20
2018-04-23T00:56:06.919Z,47.30
2018-04-23T00:56:40.302Z,47.30
2018-04-23T00:57:13.686Z,47.30
2018-04-23T00:57:47.067Z,47.30
2018-04-23T00:58:21.268Z,47.30
2018-04-23T00:58:54.653Z,47.30
2018-04-23T00:59:28.035Z,47.40
2018-04-23T01:00:01.417Z,47.30
2018-04-23T01:00:34.799Z,47.30
2018-04-23T01:01:08.181Z,47.40
2018-04-23T01:01:41.568Z,47.30
2018-04-23T01:02:14.945Z,47.30
2018-04-23T01:02:48.942Z,47.30
2018-04-23T01:03:22.915Z,47.30
2018-04-23T01:03:56.323Z,47.30
2018-04-23T01:04:29.704Z,47.30
2018-04-23T01:05:03.088Z,47.30
2018-04-23T01:05:36.469Z,47.30
2018-04-23T01:06:09.852Z,47.30
2018-04-23T01:06:44.064Z,47.30
2018-04-23T01:07:17.436Z,47.20
2018-04-23T01:07:50.823Z,47.30
2018-04-23T01:08:24.204Z,47.40
2018-04-23T01:08:57.584Z,47.40
2018-04-23T01:09:31.784Z,47.40
2018-04-23T01:10:05.168Z,47.30
2018-04-23T01:10:40.201Z,47.30
2018-04-23T01:11:13.570Z,47.30
2018-04-23T01:11:46.954Z,47.30
2018-04-23T01:12:20.541Z,47.40
2018-04-23T01:12:53.846Z,47.30
2018-04-23T01:13:27.222Z,47.30
2018-04-23T01:14:00.690Z,47.30
2018-04-23T01:14:33.982Z,47.30
2018-04-23T01:15:07.363Z,47.30
2018-04-23T01:15:40.834Z,47.30
2018-04-23T01:16:14.219Z,47.30
2018-04-23T01:16:47.516Z,47.40
2018-04-23T01:17:20.983Z,47.30
2018-04-23T01:17:54.364Z,47.40
2018-04-23T01:18:28.482Z,47.30
2018-04-23T01:19:01.714Z,47.30
2018-04-23T01:19:35.127Z,47.30
2018-04-23T01:20:09.329Z,47.30
2018-04-23T01:20:42.712Z,47.30
2018-04-23T01:21:16.015Z,47.40
2018-04-23T01:21:49.388Z,47.40
2018-04-23T01:22:22.859Z,47.30
2018-04-23T01:22:56.240Z,47.30
2018-04-23T01:23:29.541Z,47.30
2018-04-23T01:24:02.923Z,47.30
2018-04-23T01:24:36.155Z,47.30
2018-04-23T01:25:09.566Z,47.30
2018-04-23T01:25:42.954Z,47.80
2018-04-23T01:26:16.246Z,47.30
2018-04-23T01:26:49.625Z,47.30
2018-04-23T01:27:23.094Z,47.30
2018-04-23T01:27:56.396Z,47.30
2018-04-23T01:28:29.778Z,47.30
2018-04-23T01:29:03.127Z,47.30
2018-04-23T01:29:36.626Z,47.30
2018-04-23T01:30:09.875Z,47.30
2018-04-23T01:30:43.391Z,47.30
2018-04-23T01:31:16.977Z,47.30
2018-04-23T01:31:50.215Z,47.30
2018-04-23T01:32:23.743Z,47.30
2018-04-23T01:32:57.124Z,47.40
2018-04-23T01:33:31.244Z,47.40
2018-04-23T01:34:04.630Z,47.40
2018-04-23T01:34:37.861Z,47.30
2018-04-23T01:35:11.269Z,47.30
2018-04-23T01:35:44.651Z,47.30
2018-04-23T01:36:17.949Z,47.30
2018-04-23T01:36:51.329Z,47.30
2018-04-23T01:37:24.801Z,47.30
2018-04-23T01:37:58.188Z,47.30
2018-04-23T01:38:31.567Z,47.40
2018-04-23T01:39:04.947Z,47.30
2018-04-23T01:39:38.329Z,47.30
2018-04-23T01:40:11.563Z,47.30
2018-04-23T01:40:45.093Z,47.30
2018-04-23T01:41:18.476Z,47.40
2018-04-23T01:41:52.590Z,47.40
2018-04-23T01:42:26.060Z,47.40
2018-04-23T01:42:59.446Z,47.30
2018-04-23T01:43:32.827Z,47.30
2018-04-23T01:44:06.943Z,47.30
2018-04-23T01:44:40.411Z,47.40
2018-04-23T01:45:14.200Z,47.40
2018-04-23T01:45:47.587Z,47.30
2018-04-23T01:46:20.968Z,47.40
2018-04-23T01:46:54.263Z,47.30
2018-04-23T01:47:27.733Z,47.30
2018-04-23T01:48:01.117Z,47.30
2018-04-23T01:48:34.496Z,47.40
2018-04-23T01:49:11.028Z,47.40
2018-04-23T01:49:44.539Z,47.40
2018-04-23T01:50:17.921Z,47.40
2018-04-23T01:50:51.218Z,47.40
2018-04-23T01:51:24.685Z,47.40
2018-04-23T01:51:58.887Z,47.50
2018-04-23T01:52:32.269Z,47.50
2018-04-23T01:53:05.652Z,47.40
2018-04-23T01:53:39.035Z,47.40
2018-04-23T01:54:12.330Z,47.40
2018-04-23T01:54:45.799Z,47.50
2018-04-23T01:55:19.793Z,47.50
2018-04-23T01:55:53.997Z,47.50
2018-04-23T01:56:27.390Z,47.50
2018-04-23T01:57:00.763Z,47.40
2018-04-23T01:57:34.350Z,47.50
2018-04-23T01:58:07.732Z,47.50
2018-04-23T01:58:41.115Z,47.50
2018-04-23T01:59:14.501Z,47.40
2018-04-23T01:59:47.881Z,47.50
2018-04-23T02:00:21.261Z,47.50
2018-04-23T02:00:55.472Z,47.50
2018-04-23T02:01:28.848Z,47.50
2018-04-23T02:02:02.229Z,47.50
2018-04-23T02:02:35.470Z,47.40
2018-04-23T02:03:08.993Z,48.70
2018-04-23T02:03:42.376Z,47.50
2018-04-23T02:04:15.758Z,47.50
2018-04-23T02:04:49.064Z,47.50
2018-04-23T02:05:22.523Z,47.50
2018-04-23T02:05:55.826Z,47.40
2018-04-23T02:06:29.290Z,47.50
2018-04-23T02:07:02.679Z,47.50
2018-04-23T02:07:35.977Z,48.70
2018-04-23T02:08:09.436Z,47.40
2018-04-23T02:08:42.817Z,47.50
2018-04-23T02:09:16.201Z,47.50
2018-04-23T02:09:49.498Z,47.50
2018-04-23T02:10:22.965Z,47.40
2018-04-23T02:10:56.350Z,47.40
2018-04-23T02:11:29.737Z,47.40
2018-04-23T02:12:03.112Z,48.60
2018-04-23T02:12:36.495Z,47.40
2018-04-23T02:13:09.879Z,47.50
2018-04-23T02:13:43.173Z,47.40
2018-04-23T02:14:17.259Z,47.40
2018-04-23T02:14:50.844Z,47.40
2018-04-23T02:15:25.047Z,47.50
2018-04-23T02:16:01.216Z,47.40
2018-04-23T02:16:34.589Z,47.30
2018-04-23T02:17:08.060Z,47.50
2018-04-23T02:17:41.442Z,47.50
2018-04-23T02:18:14.827Z,47.50
2018-04-23T02:18:48.208Z,47.50
2018-04-23T02:19:21.590Z,47.50
2018-04-23T02:19:54.979Z,47.40
2018-04-23T02:20:28.354Z,47.50
2018-04-23T02:21:01.654Z,47.40
2018-04-23T02:21:35.029Z,47.50
2018-04-23T02:22:08.501Z,47.50
2018-04-23T02:22:42.704Z,47.50
2018-04-23T02:23:16.906Z,47.50
2018-04-23T02:23:51.021Z,47.40
2018-04-23T02:24:24.412Z,47.40
2018-04-23T02:24:57.790Z,47.40
2018-04-23T02:25:31.256Z,47.40
2018-04-23T02:26:04.638Z,47.50
2018-04-23T02:26:38.225Z,47.40
2018-04-23T02:27:11.610Z,47.40
2018-04-23T02:27:44.908Z,47.50
2018-04-23T02:28:18.372Z,47.50
2018-04-23T02:28:51.754Z,47.50
2018-04-23T02:29:25.143Z,47.50
2018-04-23T02:29:58.522Z,47.50
2018-04-23T02:30:31.821Z,47.50
2018-04-23T02:31:05.285Z,47.50
2018-04-23T02:31:38.668Z,47.50
2018-04-23T02:32:12.049Z,47.50
2018-04-23T02:32:45.432Z,47.50
2018-04-23T02:33:18.814Z,47.50
2018-04-23T02:33:52.197Z,47.40
2018-04-23T02:34:25.579Z,47.40
2018-04-23T02:35:00.397Z,47.40
2018-04-23T02:35:33.781Z,47.50
2018-04-23T02:36:07.161Z,47.50
2018-04-23T02:36:40.949Z,47.40
2018-04-23T02:37:14.334Z,47.40
2018-04-23T02:37:47.630Z,47.50
2018-04-23T02:38:21.012Z,47.40
2018-04-23T02:38:54.482Z,47.50
2018-04-23T02:39:27.865Z,47.50
2018-04-23T02:40:01.251Z,47.50
2018-04-23T02:40:34.630Z,47.50
2018-04-23T02:41:08.017Z,47.50
2018-04-23T02:41:41.395Z,47.50
2018-04-23T02:42:14.692Z,47.50
2018-04-23T02:42:48.161Z,47.50
2018-04-23T02:43:21.542Z,47.40
2018-04-23T02:43:54.924Z,47.40
2018-04-23T02:44:28.306Z,47.40
2018-04-23T02:45:01.689Z,47.40
2018-04-23T02:45:35.071Z,47.40
2018-04-23T02:46:08.368Z,47.40
2018-04-23T02:46:41.628Z,47.50
2018-04-23T02:47:14.924Z,47.40
2018-04-23T02:47:48.396Z,47.40
2018-04-23T02:48:21.782Z,47.50
2018-04-23T02:48:55.006Z,47.40
2018-04-23T02:49:28.339Z,47.40
2018-04-23T02:50:01.723Z,47.50
2018-04-23T02:50:35.924Z,47.50
2018-04-23T02:51:09.307Z,47.40
2018-04-23T02:51:42.688Z,47.40
2018-04-23T02:52:16.890Z,47.40
2018-04-23T02:52:50.389Z,47.40
2018-04-23T02:53:23.860Z,47.40
2018-04-23T02:53:57.242Z,47.40
2018-04-23T02:54:30.543Z,47.40
2018-04-23T02:55:04.007Z,47.30
2018-04-23T02:55:38.209Z,47.40
2018-04-23T02:56:11.591Z,47.40
2018-04-23T02:56:44.974Z,47.40
2018-04-23T02:57:18.766Z,47.40
2018-04-23T02:57:52.150Z,47.30
2018-04-23T02:58:25.530Z,47.50
2018-04-23T02:58:58.917Z,47.40
2018-04-23T02:59:32.295Z,47.30
2018-04-23T03:00:05.678Z,47.30
2018-04-23T03:00:39.061Z,47.40
2018-04-23T03:01:12.443Z,47.40
2018-04-23T03:01:45.739Z,47.40
2018-04-23T03:02:19.207Z,47.30
2018-04-23T03:02:53.416Z,47.40
2018-04-23T03:03:26.793Z,47.40
2018-04-23T03:04:00.174Z,47.40
2018-04-23T03:04:33.659Z,47.40
2018-04-23T03:05:07.145Z,47.40
2018-04-23T03:05:40.525Z,47.30
2018-04-23T03:06:13.910Z,47.40
2018-04-23T03:06:47.476Z,47.30
2018-04-23T03:07:21.697Z,47.50
2018-04-23T03:07:55.080Z,47.40
2018-04-23T03:08:28.462Z,47.40
2018-04-23T03:09:01.845Z,47.40
2018-04-23T03:09:35.228Z,47.40
2018-04-23T03:10:08.613Z,47.40
2018-04-23T03:10:41.992Z,47.40
2018-04-23T03:11:15.374Z,47.40
2018-04-23T03:11:49.854Z,47.30
2018-04-23T03:12:23.369Z,47.40
2018-04-23T03:12:56.750Z,47.40
2018-04-23T03:13:30.040Z,47.40
2018-04-23T03:14:03.518Z,47.40
2018-04-23T03:14:36.899Z,47.40
2018-04-23T03:15:10.281Z,47.30
2018-04-23T03:15:43.868Z,47.40
2018-04-23T03:16:17.171Z,47.40
2018-04-23T03:16:50.636Z,47.40
2018-04-23T03:17:24.017Z,47.30
2018-04-23T03:17:57.310Z,47.40
2018-04-23T03:18:30.702Z,47.40
2018-04-23T03:19:04.164Z,47.30
2018-04-23T03:19:37.545Z,47.40
2018-04-23T03:20:11.022Z,47.40
2018-04-23T03:20:44.516Z,47.30
2018-04-23T03:21:17.898Z,47.30
2018-04-23T03:21:51.279Z,47.40
2018-04-23T03:22:24.670Z,47.40
2018-04-23T03:22:58.045Z,47.30
2018-04-23T03:23:31.426Z,47.30
2018-04-23T03:24:04.810Z,47.30
2018-04-23T03:24:38.122Z,47.30
2018-04-23T03:25:11.574Z,47.30
2018-04-23T03:25:44.958Z,47.30
2018-04-23T03:26:18.339Z,47.30
2018-04-23T03:26:51.722Z,47.30
2018-04-23T03:27:25.104Z,47.30
2018-04-23T03:27:58.487Z,47.40
2018-04-23T03:28:31.881Z,47.30
2018-04-23T03:29:05.866Z,47.30
2018-04-23T03:29:39.274Z,47.30
2018-04-23T03:30:12.632Z,47.30
2018-04-23T03:30:46.207Z,47.30
2018-04-23T03:31:20.346Z,47.40
2018-04-23T03:31:53.804Z,47.30
2018-04-23T03:32:27.185Z,47.30
2018-04-23T03:33:00.773Z,47.30
2018-04-23T03:33:34.159Z,47.30
2018-04-23T03:34:07.538Z,47.30
2018-04-23T03:34:40.932Z,47.40
2018-04-23T03:35:14.163Z,47.40
2018-04-23T03:35:47.684Z,47.40
2018-04-23T03:36:21.113Z,47.40
2018-04-23T03:36:54.363Z,47.30
2018-04-23T03:37:27.831Z,47.30
2018-04-23T03:38:02.034Z,47.40
2018-04-23T03:38:35.469Z,47.30
2018-04-23T03:39:08.709Z,47.40
2018-04-23T03:39:42.181Z,47.30
2018-04-23T03:40:15.564Z,47.30
2018-04-23T03:40:48.946Z,47.30
2018-04-23T03:41:22.241Z,47.30
2018-04-23T03:41:55.711Z,47.30
2018-04-23T03:42:28.949Z,47.30
2018-04-23T03:43:02.475Z,47.40
2018-04-23T03:43:36.599Z,47.30
2018-04-23T03:44:10.059Z,47.30
2018-04-23T03:44:44.264Z,47.30
2018-04-23T03:45:17.566Z,47.30
2018-04-23T03:45:51.027Z,47.30
2018-04-23T03:46:24.408Z,47.30
2018-04-23T03:46:57.793Z,47.30
2018-04-23T03:47:31.174Z,47.30
2018-04-23T03:48:04.556Z,47.30
2018-04-23T03:48:37.941Z,47.30
2018-04-23T03:49:11.329Z,47.30
2018-04-23T03:49:44.704Z,47.30
2018-04-23T03:50:18.086Z,47.30
2018-04-23T03:50:51.469Z,47.30
2018-04-23T03:51:24.851Z,47.30
2018-04-23T03:51:58.235Z,47.20
2018-04-23T03:52:31.616Z,47.30
2018-04-23T03:53:04.918Z,47.30
2018-04-23T03:53:38.301Z,47.30
2018-04-23T03:54:11.769Z,47.30
2018-04-23T03:54:45.352Z,47.30
2018-04-23T03:55:20.564Z,47.20
2018-04-23T03:55:54.570Z,47.40
2018-04-23T03:56:27.955Z,47.40
2018-04-23T03:57:02.158Z,47.30
2018-04-23T03:57:35.540Z,47.30
2018-04-23T03:58:09.652Z,47.30
2018-04-23T03:58:43.123Z,47.30
2018-04-23T03:59:16.507Z,47.40
2018-04-23T03:59:50.708Z,47.40
2018-04-23T04:00:24.092Z,47.30
2018-04-23T04:00:57.473Z,47.30
2018-04-23T04:01:30.858Z,47.30
2018-04-23T04:02:04.238Z,47.30
2018-04-23T04:02:37.622Z,47.30
2018-04-23T04:03:11.824Z,47.30
2018-04-23T04:03:46.026Z,47.40
2018-04-23T04:04:19.409Z,47.30
2018-04-23T04:04:52.792Z,47.30
2018-04-23T04:05:26.176Z,47.30
2018-04-23T04:05:59.553Z,47.30
2018-04-23T04:06:32.937Z,47.30
2018-04-23T04:07:06.236Z,47.30
2018-04-23T04:07:39.701Z,47.30
2018-04-23T04:08:13.097Z,47.30
2018-04-23T04:08:46.468Z,47.30
2018-04-23T04:09:19.856Z,47.40
2018-04-23T04:09:53.278Z,47.30
2018-04-23T04:10:26.616Z,47.30
2018-04-23T04:11:00.000Z,47.30
2018-04-23T04:11:34.198Z,47.30
2018-04-23T04:12:19.460Z,47.40
2018-04-23T04:13:04.519Z,47.30
2018-04-23T04:13:49.776Z,47.30
2018-04-23T04:14:35.037Z,47.30
2018-04-23T04:15:20.302Z,47.20
2018-04-23T04:16:05.450Z,47.30
2018-04-23T04:16:50.751Z,47.30
2018-04-23T04:17:31.984Z,47.30
2018-04-23T04:19:20.525Z,47.20
2018-04-23T04:19:54.648Z,47.50
2018-04-23T04:20:28.112Z,47.40
2018-04-23T04:21:01.495Z,47.40
2018-04-23T04:21:36.577Z,47.50
2018-04-23T04:22:10.102Z,47.40
2018-04-23T04:22:44.311Z,47.40
2018-04-23T04:23:17.687Z,47.40
2018-04-23T04:23:51.071Z,47.40
2018-04-23T04:24:24.454Z,47.40
2018-04-23T04:24:57.836Z,47.40
2018-04-23T04:25:31.218Z,47.40
2018-04-23T04:26:04.599Z,47.40
2018-04-23T04:26:37.982Z,47.30
2018-04-23T04:27:12.094Z,47.40
2018-04-23T04:27:45.361Z,47.30
2018-04-23T04:28:18.748Z,47.30
2018-04-23T04:28:52.453Z,47.30
2018-04-23T04:29:25.712Z,47.30
2018-04-23T04:30:00.939Z,47.30
2018-04-23T04:30:34.323Z,47.30
2018-04-23T04:31:07.703Z,47.30
2018-04-23T04:31:41.904Z,47.30
2018-04-23T04:32:15.206Z,47.20
2018-04-23T04:32:48.462Z,47.30
2018-04-23T04:33:22.667Z,47.30
2018-04-23T04:33:56.870Z,47.30
2018-04-23T04:34:31.070Z,47.30
2018-04-23T04:35:05.272Z,47.30
2018-04-23T04:35:38.673Z,47.30
2018-04-23T04:36:12.447Z,47.30
2018-04-23T04:36:45.828Z,47.20
2018-04-23T04:37:20.032Z,47.30
2018-04-23T04:37:53.413Z,47.30
2018-04-23T04:38:26.798Z,47.20
2018-04-23T04:39:00.177Z,47.20
2018-04-23T04:39:33.565Z,47.20
2018-04-23T04:40:06.943Z,47.30
2018-04-23T04:40:40.325Z,47.30
2018-04-23T04:41:13.707Z,47.30
2018-04-23T04:41:47.911Z,47.30
2018-04-23T04:42:21.292Z,47.30
2018-04-23T04:42:55.493Z,47.20
2018-04-23T04:43:28.794Z,47.20
2018-04-23T04:44:02.258Z,47.30
2018-04-23T04:44:36.461Z,47.30
2018-04-23T04:45:09.842Z,47.30
2018-04-23T04:45:43.227Z,47.20
2018-04-23T04:46:16.609Z,47.30
2018-04-23T04:46:49.990Z,47.20
2018-04-23T04:47:24.193Z,47.20
2018-04-23T04:47:57.574Z,47.20
2018-04-23T04:48:31.777Z,47.20
2018-04-23T04:49:05.893Z,47.20
2018-04-23T04:49:39.129Z,47.20
2018-04-23T04:50:12.536Z,47.20
2018-04-23T04:50:46.741Z,47.20
2018-04-23T04:51:20.950Z,47.20
2018-04-23T04:51:54.323Z,47.20
2018-04-23T04:52:27.706Z,47.20
2018-04-23T04:53:01.090Z,47.20
2018-04-23T04:53:34.470Z,47.20
2018-04-23T04:54:08.672Z,47.30
2018-04-23T04:54:42.055Z,47.20
2018-04-23T04:55:15.354Z,47.20
2018-04-23T04:55:48.819Z,47.20
2018-04-23T04:56:22.801Z,47.20
2018-04-23T04:56:56.946Z,47.20
2018-04-23T04:57:30.400Z,47.30
2018-04-23T04:58:03.782Z,47.20
2018-04-23T04:58:37.987Z,47.20
2018-04-23T04:59:11.366Z,47.20
2018-04-23T04:59:44.754Z,47.20
2018-04-23T05:00:18.134Z,47.20
2018-04-23T05:00:52.539Z,47.20
2018-04-23T05:01:26.656Z,47.20
2018-04-23T05:02:00.053Z,47.20
2018-04-23T05:02:33.505Z,47.20
2018-04-23T05:03:07.623Z,47.20
2018-04-23T05:03:41.089Z,47.20
2018-04-23T05:04:15.206Z,47.20
2018-04-23T05:04:48.673Z,47.20
2018-04-23T05:05:22.175Z,47.20
2018-04-23T05:05:55.409Z,47.20
2018-04-23T05:06:29.640Z,47.20
2018-04-23T05:07:03.022Z,47.20
2018-04-23T05:07:36.408Z,47.20
2018-04-23T05:08:09.633Z,47.20
2018-04-23T05:08:42.876Z,47.20
2018-04-23T05:09:16.346Z,47.20
2018-04-23T05:09:50.551Z,47.20
2018-04-23T05:10:23.847Z,47.20
2018-04-23T05:10:57.231Z,47.20
2018-04-23T05:11:30.901Z,47.20
2018-04-23T05:12:04.285Z,47.20
2018-04-23T05:12:37.668Z,47.20
2018-04-23T05:13:11.051Z,47.20
2018-04-23T05:13:44.436Z,47.30
2018-04-23T05:14:17.813Z,47.20
2018-04-23T05:14:51.195Z,47.20
2018-04-23T05:15:25.398Z,47.20
2018-04-23T05:15:59.598Z,47.20
2018-04-23T05:16:32.982Z,47.20
2018-04-23T05:17:07.110Z,47.30
2018-04-23T05:17:40.338Z,47.20
2018-04-23T05:18:14.562Z,47.30
2018-04-23T05:18:47.862Z,47.20
2018-04-23T05:19:21.329Z,47.20
2018-04-23T05:19:55.361Z,47.30
2018-04-23T05:20:28.709Z,47.30
2018-04-23T05:21:02.908Z,47.30
2018-04-23T05:21:37.110Z,47.20
2018-04-23T05:22:11.312Z,47.20
2018-04-23T05:22:45.517Z,47.20
2018-04-23T05:23:18.809Z,47.20
2018-04-23T05:23:52.090Z,47.20
2018-04-23T05:24:26.283Z,47.30
2018-04-23T05:24:59.658Z,47.20
2018-04-23T05:25:33.864Z,47.30
2018-04-23T05:26:07.247Z,47.20
2018-04-23T05:26:40.954Z,47.20
2018-04-23T05:27:14.417Z,47.20
2018-04-23T05:27:48.533Z,47.20
2018-04-23T05:28:21.924Z,47.20
2018-04-23T05:28:55.383Z,47.20
2018-04-23T05:29:29.584Z,47.20
2018-04-23T05:30:03.645Z,47.20
2018-04-23T05:30:37.086Z,47.20
2018-04-23T05:31:10.552Z,47.20
2018-04-23T05:31:43.856Z,47.20
2018-04-23T05:32:17.316Z,47.20
2018-04-23T05:32:50.636Z,47.20
2018-04-23T05:33:24.094Z,47.20
2018-04-23T05:33:57.675Z,47.20
2018-04-23T05:34:31.050Z,47.30
2018-04-23T05:35:04.433Z,47.20
2018-04-23T05:35:37.816Z,47.20
2018-04-23T05:36:11.198Z,47.20
2018-04-23T05:36:45.313Z,47.20
2018-04-23T05:37:18.713Z,47.30
2018-04-23T05:37:52.165Z,47.30
2018-04-23T05:38:27.595Z,47.40
2018-04-23T05:39:01.797Z,47.50
2018-04-23T05:39:35.185Z,47.50
2018-04-23T05:40:08.563Z,47.40
2018-04-23T05:40:41.946Z,47.50
2018-04-23T05:41:15.533Z,47.50
2018-04-23T05:41:49.736Z,47.50
2018-04-23T05:42:23.937Z,47.50
2018-04-23T05:42:57.319Z,47.50
2018-04-23T05:43:30.638Z,47.50
2018-04-23T05:44:04.097Z,47.50
2018-04-23T05:44:37.466Z,47.60
2018-04-23T05:45:11.669Z,47.50
2018-04-23T05:45:45.052Z,47.50
2018-04-23T05:46:18.355Z,47.50
2018-04-23T05:46:51.740Z,47.50
2018-04-23T05:47:25.197Z,47.60
2018-04-23T05:47:59.398Z,47.50
2018-04-23T05:48:33.515Z,47.60
2018-04-23T05:49:06.905Z,47.50
2018-04-23T05:49:40.368Z,47.50
2018-04-23T05:50:13.747Z,47.60
2018-04-23T05:50:47.959Z,47.70
2018-04-23T05:51:21.334Z,47.70
2018-04-23T05:51:54.720Z,47.60
2018-04-23T05:52:28.103Z,47.70
2018-04-23T05:53:01.482Z,47.70
2018-04-23T05:53:34.861Z,47.80
2018-04-23T05:54:08.247Z,47.80
2018-04-23T05:54:43.059Z,47.80
2018-04-23T05:55:17.261Z,47.80
2018-04-23T05:55:50.647Z,47.80
2018-04-23T05:56:24.032Z,47.80
2018-04-23T05:56:57.412Z,47.90
2018-04-23T05:57:30.796Z,47.90
2018-04-23T05:58:04.177Z,47.90
2018-04-23T05:58:37.555Z,47.90
2018-04-23T05:59:10.939Z,47.90
2018-04-23T05:59:44.532Z,47.90
2018-04-23T06:00:17.913Z,48.00
2018-04-23T06:00:51.291Z,48.00
2018-04-23T06:01:25.492Z,48.10
2018-04-23T06:01:58.874Z,48.10
2018-04-23T06:02:32.259Z,48.10
2018-04-23T06:03:05.667Z,48.20
2018-04-23T06:03:39.021Z,48.20
2018-04-23T06:04:12.402Z,48.20
2018-04-23T06:04:46.609Z,48.40
2018-04-23T06:05:19.995Z,48.40
2018-04-23T06:05:53.374Z,48.30
2018-04-23T06:06:26.761Z,48.30
2018-04-23T06:07:00.135Z,48.20
2018-04-23T06:07:33.517Z,48.30
2018-04-23T06:08:06.898Z,48.30
2018-04-23T06:08:40.310Z,48.30
2018-04-23T06:09:13.868Z,48.30
2018-04-23T06:09:47.967Z,48.40
2018-04-23T06:10:21.453Z,48.40
2018-04-23T06:10:55.654Z,48.50
2018-04-23T06:11:29.038Z,48.40
2018-04-23T06:12:03.245Z,48.60
2018-04-23T06:12:36.738Z,48.60
2018-04-23T06:13:10.208Z,48.70
2018-04-23T06:13:43.505Z,48.70
2018-04-23T06:14:17.038Z,48.70
2018-04-23T06:14:50.766Z,48.70
2018-04-23T06:15:24.159Z,48.70
2018-04-23T06:15:57.529Z,48.60
2018-04-23T06:16:31.731Z,48.80
2018-04-23T06:17:05.114Z,48.70
2018-04-23T06:17:38.497Z,48.80
2018-04-23T06:18:11.878Z,48.80
2018-04-23T06:18:45.261Z,48.80
2018-04-23T06:19:18.644Z,48.70
2018-04-23T06:19:52.849Z,48.80
2018-04-23T06:20:27.048Z,48.80
2018-04-23T06:21:00.347Z,48.70
2018-04-23T06:21:33.812Z,48.70
2018-04-23T06:22:07.198Z,48.80
2018-04-23T06:22:40.587Z,48.70
2018-04-23T06:23:13.959Z,48.80
2018-04-23T06:23:47.342Z,48.90
2018-04-23T06:24:21.460Z,48.80
2018-04-23T06:24:54.843Z,48.80
2018-04-23T06:25:28.308Z,48.80
2018-04-23T06:26:01.690Z,48.80
2018-04-23T06:26:35.893Z,48.70
2018-04-23T06:27:09.275Z,48.70
2018-04-23T06:27:43.388Z,48.60
2018-04-23T06:28:16.858Z,48.50
2018-04-23T06:28:50.241Z,48.50
2018-04-23T06:29:23.624Z,48.40
2018-04-23T06:29:57.825Z,48.40
2018-04-23T06:30:31.207Z,48.40
2018-04-23T06:31:04.590Z,48.40
2018-04-23T06:31:37.972Z,48.40
2018-04-23T06:32:11.356Z,48.40
2018-04-23T06:32:44.651Z,48.40
2018-04-23T06:33:18.119Z,48.40
2018-04-23T06:33:52.321Z,48.50
2018-04-23T06:34:25.705Z,48.40
2018-04-23T06:34:59.087Z,48.40
2018-04-23T06:35:32.468Z,48.50
2018-04-23T06:36:05.853Z,48.40
2018-04-23T06:36:39.234Z,48.50
2018-04-23T06:37:13.435Z,48.40
2018-04-23T06:37:47.635Z,48.40
2018-04-23T06:38:23.054Z,48.40
2018-04-23T06:38:57.269Z,48.50
2018-04-23T06:39:30.651Z,48.40
2018-04-23T06:40:04.649Z,48.60
2018-04-23T06:40:38.642Z,48.50
2018-04-23T06:41:12.847Z,48.60
2018-04-23T06:41:46.231Z,48.60
2018-04-23T06:42:19.613Z,48.50
2018-04-23T06:42:52.995Z,48.60
2018-04-23T06:43:26.382Z,48.50
2018-04-23T06:43:59.759Z,48.50
2018-04-23T06:44:33.141Z,48.60
2018-04-23T06:45:06.524Z,48.60
2018-04-23T06:45:39.907Z,48.60
2018-04-23T06:46:14.118Z,48.60
2018-04-23T06:46:47.491Z,48.60
2018-04-23T06:47:20.873Z,48.60
2018-04-23T06:47:55.074Z,48.70
2018-04-23T06:48:28.464Z,48.60
2018-04-23T06:49:01.843Z,48.70
2018-04-23T06:49:35.222Z,48.60
2018-04-23T06:50:09.428Z,48.70
2018-04-23T06:50:42.822Z,48.70
2018-04-23T06:51:16.202Z,48.70
2018-04-23T06:51:49.492Z,48.70
2018-04-23T06:52:22.950Z,48.60
2018-04-23T06:52:57.155Z,48.70
2018-04-23T06:53:30.745Z,48.60
2018-04-23T06:54:04.125Z,48.60
2018-04-23T06:54:37.507Z,48.60
2018-04-23T06:55:10.800Z,48.60
2018-04-23T06:55:44.271Z,48.70
2018-04-23T06:56:18.265Z,48.70
2018-04-23T06:56:52.472Z,48.80
2018-04-23T06:57:25.773Z,48.80
2018-04-23T06:57:59.238Z,48.80
2018-04-23T06:58:33.438Z,48.70
2018-04-23T06:59:06.842Z,48.70
2018-04-23T06:59:40.203Z,48.60
2018-04-23T07:00:13.816Z,48.60
2018-04-23T07:00:47.384Z,48.50
2018-04-23T07:01:21.580Z,48.50
2018-04-23T07:01:54.967Z,48.50
2018-04-23T07:02:28.269Z,48.40
2018-04-23T07:03:01.727Z,49.70
2018-04-23T07:03:35.110Z,48.50
2018-04-23T07:04:09.516Z,48.60
2018-04-23T07:04:42.924Z,48.50
2018-04-23T07:05:16.190Z,48.60
2018-04-23T07:05:49.577Z,48.60
2018-04-23T07:06:23.012Z,48.60
2018-04-23T07:06:56.341Z,48.60
2018-04-23T07:07:29.812Z,48.60
2018-04-23T07:08:03.193Z,48.60
2018-04-23T07:08:36.575Z,48.60
2018-04-23T07:09:09.959Z,48.60
2018-04-23T07:09:43.341Z,48.60
2018-04-23T07:10:16.723Z,48.50
2018-04-23T07:10:50.105Z,48.50
2018-04-23T07:11:24.461Z,48.50
2018-04-23T07:11:57.894Z,48.50
2018-04-23T07:12:31.281Z,48.40
2018-04-23T07:13:04.659Z,48.40
2018-04-23T07:13:38.861Z,48.40
2018-04-23T07:14:12.245Z,48.40
2018-04-23T07:14:46.360Z,48.40
2018-04-23T07:15:19.754Z,48.40